In Rescue
 
Open Full Screen Window  High Contrast Mode
Wind Gusting 17 knots
12
July 25, 2021 9:08 AM EDT
Weather Information
Wind Direction
  250 °
Wind Speed
  12 kt (14 mph)
Wind Gust
  17 kt (20 mph)
Altimeter
29.83 in
Visibility
10 SM
Temperature
22° C
72° F
Dewpoint
17° C
63° F
Humidity
73%
Sky Condition
Clear
VFR

METAR KPZQ 251308Z AUTO 25012G17KT 10SM CLR 22/17 A2983 RMK AO2 T02150166

FAA Disclaimer: The data displayed is for advisory purposes only and is not to be used for flight planning or operations.